sensor_id;sensor_type;location;lat;lon;timestamp;P1;durP1;ratioP1;P2;durP2;ratioP2
26484;SDS011;18083;50.560;7.262;2023-05-15T00:01:37;4.43;;;3.77;;
26484;SDS011;18083;50.560;7.262;2023-05-15T00:04:05;4.30;;;3.17;;
26484;SDS011;18083;50.560;7.262;2023-05-15T00:06:32;4.72;;;3.30;;
26484;SDS011;18083;50.560;7.262;2023-05-15T00:08:59;7.60;;;3.75;;
26484;SDS011;18083;50.560;7.262;2023-05-15T00:11:27;6.62;;;4.00;;
26484;SDS011;18083;50.560;7.262;2023-05-15T00:13:54;3.80;;;3.50;;
26484;SDS011;18083;50.560;7.262;2023-05-15T00:16:21;6.17;;;3.50;;
26484;SDS011;18083;50.560;7.262;2023-05-15T00:18:49;4.83;;;3.65;;
26484;SDS011;18083;50.560;7.262;2023-05-15T00:21:16;4.70;;;3.10;;
26484;SDS011;18083;50.560;7.262;2023-05-15T00:23:43;6.17;;;4.05;;
26484;SDS011;18083;50.560;7.262;2023-05-15T00:26:12;5.60;;;4.65;;
26484;SDS011;18083;50.560;7.262;2023-05-15T00:28:41;4.40;;;4.00;;
26484;SDS011;18083;50.560;7.262;2023-05-15T00:31:08;6.70;;;4.40;;
26484;SDS011;18083;50.560;7.262;2023-05-15T00:33:37;6.85;;;4.08;;
26484;SDS011;18083;50.560;7.262;2023-05-15T00:36:04;4.95;;;4.08;;
26484;SDS011;18083;50.560;7.262;2023-05-15T00:38:32;7.83;;;5.50;;
26484;SDS011;18083;50.560;7.262;2023-05-15T00:41:00;10.03;;;4.65;;
26484;SDS011;18083;50.560;7.262;2023-05-15T00:43:27;6.12;;;3.87;;
26484;SDS011;18083;50.560;7.262;2023-05-15T00:45:55;4.92;;;3.92;;
26484;SDS011;18083;50.560;7.262;2023-05-15T00:48:23;4.35;;;3.47;;
26484;SDS011;18083;50.560;7.262;2023-05-15T00:50:51;4.75;;;3.62;;
26484;SDS011;18083;50.560;7.262;2023-05-15T00:53:19;8.70;;;4.17;;
26484;SDS011;18083;50.560;7.262;2023-05-15T00:55:46;5.03;;;4.03;;
26484;SDS011;18083;50.560;7.262;2023-05-15T00:58:15;3.83;;;3.52;;
26484;SDS011;18083;50.560;7.262;2023-05-15T01:00:43;3.85;;;3.42;;
26484;SDS011;18083;50.560;7.262;2023-05-15T01:03:11;6.30;;;4.42;;
26484;SDS011;18083;50.560;7.262;2023-05-15T01:05:38;5.35;;;3.77;;
26484;SDS011;18083;50.560;7.262;2023-05-15T01:08:51;4.40;;;4.00;;
26484;SDS011;18083;50.560;7.262;2023-05-15T01:10:34;4.17;;;3.77;;
26484;SDS011;18083;50.560;7.262;2023-05-15T01:13:02;6.33;;;3.53;;
26484;SDS011;18083;50.560;7.262;2023-05-15T01:15:30;4.22;;;3.77;;
26484;SDS011;18083;50.560;7.262;2023-05-15T01:17:58;4.08;;;3.67;;
26484;SDS011;18083;50.560;7.262;2023-05-15T01:20:26;6.47;;;4.50;;
26484;SDS011;18083;50.560;7.262;2023-05-15T01:22:57;4.72;;;3.70;;
26484;SDS011;18083;50.560;7.262;2023-05-15T01:25:33;4.03;;;3.62;;
26484;SDS011;18083;50.560;7.262;2023-05-15T01:28:02;4.50;;;3.55;;
26484;SDS011;18083;50.560;7.262;2023-05-15T01:30:30;4.95;;;3.62;;
26484;SDS011;18083;50.560;7.262;2023-05-15T01:38:19;3.92;;;3.52;;
26484;SDS011;18083;50.560;7.262;2023-05-15T01:40:50;4.80;;;4.03;;
26484;SDS011;18083;50.560;7.262;2023-05-15T01:43:18;3.55;;;3.25;;
26484;SDS011;18083;50.560;7.262;2023-05-15T01:45:46;4.12;;;3.60;;
26484;SDS011;18083;50.560;7.262;2023-05-15T01:48:13;5.28;;;4.00;;
26484;SDS011;18083;50.560;7.262;2023-05-15T01:50:41;5.28;;;3.72;;
26484;SDS011;18083;50.560;7.262;2023-05-15T01:53:09;4.78;;;4.22;;
26484;SDS011;18083;50.560;7.262;2023-05-15T01:55:36;5.40;;;3.60;;
26484;SDS011;18083;50.560;7.262;2023-05-15T01:58:04;7.22;;;3.60;;
26484;SDS011;18083;50.560;7.262;2023-05-15T02:00:32;5.17;;;4.25;;
26484;SDS011;18083;50.560;7.262;2023-05-15T02:03:00;5.28;;;4.10;;
26484;SDS011;18083;50.560;7.262;2023-05-15T02:05:28;3.87;;;3.47;;
26484;SDS011;18083;50.560;7.262;2023-05-15T02:07:55;4.45;;;4.05;;
26484;SDS011;18083;50.560;7.262;2023-05-15T02:10:23;4.87;;;4.05;;
26484;SDS011;18083;50.560;7.262;2023-05-15T02:12:51;7.37;;;3.98;;
26484;SDS011;18083;50.560;7.262;2023-05-15T02:15:19;6.30;;;3.65;;
26484;SDS011;18083;50.560;7.262;2023-05-15T02:17:46;9.60;;;4.60;;
26484;SDS011;18083;50.560;7.262;2023-05-15T02:20:14;7.22;;;4.20;;
26484;SDS011;18083;50.560;7.262;2023-05-15T02:22:41;5.47;;;4.10;;
26484;SDS011;18083;50.560;7.262;2023-05-15T02:25:08;7.47;;;4.42;;
26484;SDS011;18083;50.560;7.262;2023-05-15T02:27:37;6.47;;;3.77;;
26484;SDS011;18083;50.560;7.262;2023-05-15T02:32:45;5.45;;;4.58;;
26484;SDS011;18083;50.560;7.262;2023-05-15T02:37:59;5.97;;;3.60;;
26484;SDS011;18083;50.560;7.262;2023-05-15T02:40:27;6.85;;;4.00;;
26484;SDS011;18083;50.560;7.262;2023-05-15T02:42:54;4.60;;;4.12;;
26484;SDS011;18083;50.560;7.262;2023-05-15T02:45:23;9.60;;;4.17;;
26484;SDS011;18083;50.560;7.262;2023-05-15T02:47:50;7.03;;;3.72;;
26484;SDS011;18083;50.560;7.262;2023-05-15T02:50:18;6.05;;;4.75;;
26484;SDS011;18083;50.560;7.262;2023-05-15T02:52:45;8.83;;;4.30;;
26484;SDS011;18083;50.560;7.262;2023-05-15T02:55:13;9.50;;;4.22;;
26484;SDS011;18083;50.560;7.262;2023-05-15T02:57:40;5.20;;;4.45;;
26484;SDS011;18083;50.560;7.262;2023-05-15T03:00:08;4.97;;;4.37;;
26484;SDS011;18083;50.560;7.262;2023-05-15T03:02:37;4.58;;;4.10;;
26484;SDS011;18083;50.560;7.262;2023-05-15T03:05:04;5.35;;;4.33;;
26484;SDS011;18083;50.560;7.262;2023-05-15T03:07:32;6.37;;;4.78;;
26484;SDS011;18083;50.560;7.262;2023-05-15T03:09:59;4.67;;;4.23;;
26484;SDS011;18083;50.560;7.262;2023-05-15T03:12:27;4.85;;;4.25;;
26484;SDS011;18083;50.560;7.262;2023-05-15T03:14:54;5.33;;;4.15;;
26484;SDS011;18083;50.560;7.262;2023-05-15T03:17:21;4.90;;;4.45;;
26484;SDS011;18083;50.560;7.262;2023-05-15T03:19:48;6.50;;;4.37;;
26484;SDS011;18083;50.560;7.262;2023-05-15T03:22:16;5.50;;;4.15;;
26484;SDS011;18083;50.560;7.262;2023-05-15T03:24:43;4.58;;;4.10;;
26484;SDS011;18083;50.560;7.262;2023-05-15T03:27:10;6.65;;;4.62;;
26484;SDS011;18083;50.560;7.262;2023-05-15T03:29:41;6.70;;;3.98;;
26484;SDS011;18083;50.560;7.262;2023-05-15T03:32:08;4.97;;;4.20;;
26484;SDS011;18083;50.560;7.262;2023-05-15T03:34:35;4.85;;;4.08;;
26484;SDS011;18083;50.560;7.262;2023-05-15T03:37:03;4.75;;;3.95;;
26484;SDS011;18083;50.560;7.262;2023-05-15T03:39:30;5.12;;;4.42;;
26484;SDS011;18083;50.560;7.262;2023-05-15T03:41:57;4.90;;;4.30;;
26484;SDS011;18083;50.560;7.262;2023-05-15T03:44:25;6.33;;;4.50;;
26484;SDS011;18083;50.560;7.262;2023-05-15T03:46:52;6.65;;;4.78;;
26484;SDS011;18083;50.560;7.262;2023-05-15T03:49:19;6.15;;;4.70;;
26484;SDS011;18083;50.560;7.262;2023-05-15T03:51:46;8.13;;;5.00;;
26484;SDS011;18083;50.560;7.262;2023-05-15T03:54:14;4.85;;;4.35;;
26484;SDS011;18083;50.560;7.262;2023-05-15T03:56:41;6.25;;;4.50;;
26484;SDS011;18083;50.560;7.262;2023-05-15T03:59:08;4.92;;;4.37;;
26484;SDS011;18083;50.560;7.262;2023-05-15T04:01:36;6.45;;;4.05;;
26484;SDS011;18083;50.560;7.262;2023-05-15T04:04:03;5.30;;;4.55;;
26484;SDS011;18083;50.560;7.262;2023-05-15T04:06:31;7.10;;;4.58;;
26484;SDS011;18083;50.560;7.262;2023-05-15T04:08:58;9.55;;;4.87;;
26484;SDS011;18083;50.560;7.262;2023-05-15T04:11:25;7.45;;;4.67;;
26484;SDS011;18083;50.560;7.262;2023-05-15T04:13:53;5.85;;;5.25;;
26484;SDS011;18083;50.560;7.262;2023-05-15T04:16:21;5.15;;;4.65;;
26484;SDS011;18083;50.560;7.262;2023-05-15T04:18:48;7.72;;;4.72;;
26484;SDS011;18083;50.560;7.262;2023-05-15T04:21:15;5.67;;;5.10;;
26484;SDS011;18083;50.560;7.262;2023-05-15T04:23:42;7.45;;;5.05;;
26484;SDS011;18083;50.560;7.262;2023-05-15T04:26:10;7.00;;;5.45;;
26484;SDS011;18083;50.560;7.262;2023-05-15T04:28:37;7.97;;;5.25;;
26484;SDS011;18083;50.560;7.262;2023-05-15T04:31:04;9.38;;;5.53;;
26484;SDS011;18083;50.560;7.262;2023-05-15T04:33:32;8.58;;;7.12;;
26484;SDS011;18083;50.560;7.262;2023-05-15T04:35:59;10.82;;;7.17;;
26484;SDS011;18083;50.560;7.262;2023-05-15T04:38:27;7.75;;;6.83;;
26484;SDS011;18083;50.560;7.262;2023-05-15T04:40:54;9.43;;;6.65;;
26484;SDS011;18083;50.560;7.262;2023-05-15T04:43:21;12.53;;;8.15;;
26484;SDS011;18083;50.560;7.262;2023-05-15T04:45:49;11.68;;;8.38;;
26484;SDS011;18083;50.560;7.262;2023-05-15T04:48:16;14.30;;;8.98;;
26484;SDS011;18083;50.560;7.262;2023-05-15T04:50:44;12.20;;;9.80;;
26484;SDS011;18083;50.560;7.262;2023-05-15T04:53:11;16.93;;;10.65;;
26484;SDS011;18083;50.560;7.262;2023-05-15T04:55:39;17.75;;;11.33;;
26484;SDS011;18083;50.560;7.262;2023-05-15T04:58:07;17.67;;;12.03;;
26484;SDS011;18083;50.560;7.262;2023-05-15T05:00:34;22.73;;;13.38;;
26484;SDS011;18083;50.560;7.262;2023-05-15T05:03:01;35.13;;;19.95;;
26484;SDS011;18083;50.560;7.262;2023-05-15T05:05:30;42.48;;;22.90;;
26484;SDS011;18083;50.560;7.262;2023-05-15T05:07:57;43.80;;;23.60;;
26484;SDS011;18083;50.560;7.262;2023-05-15T05:10:24;44.77;;;22.42;;
26484;SDS011;18083;50.560;7.262;2023-05-15T05:12:51;40.30;;;21.77;;
26484;SDS011;18083;50.560;7.262;2023-05-15T05:15:19;38.50;;;21.97;;
26484;SDS011;18083;50.560;7.262;2023-05-15T05:17:46;41.90;;;23.73;;
26484;SDS011;18083;50.560;7.262;2023-05-15T05:20:13;44.70;;;24.45;;
26484;SDS011;18083;50.560;7.262;2023-05-15T05:22:41;35.08;;;21.90;;
26484;SDS011;18083;50.560;7.262;2023-05-15T05:25:08;42.08;;;26.15;;
26484;SDS011;18083;50.560;7.262;2023-05-15T05:27:36;51.20;;;28.65;;
26484;SDS011;18083;50.560;7.262;2023-05-15T05:30:03;48.60;;;25.82;;
26484;SDS011;18083;50.560;7.262;2023-05-15T05:32:30;64.47;;;32.50;;
26484;SDS011;18083;50.560;7.262;2023-05-15T05:34:58;52.95;;;32.08;;
26484;SDS011;18083;50.560;7.262;2023-05-15T05:37:25;59.08;;;33.25;;
26484;SDS011;18083;50.560;7.262;2023-05-15T05:39:52;54.50;;;31.27;;
26484;SDS011;18083;50.560;7.262;2023-05-15T05:42:20;60.98;;;34.75;;
26484;SDS011;18083;50.560;7.262;2023-05-15T05:44:47;61.42;;;35.05;;
26484;SDS011;18083;50.560;7.262;2023-05-15T05:47:14;68.85;;;38.20;;
26484;SDS011;18083;50.560;7.262;2023-05-15T05:49:42;57.70;;;33.00;;
26484;SDS011;18083;50.560;7.262;2023-05-15T05:52:10;61.18;;;35.05;;
26484;SDS011;18083;50.560;7.262;2023-05-15T05:54:38;62.93;;;36.98;;
26484;SDS011;18083;50.560;7.262;2023-05-15T05:57:05;62.88;;;37.15;;
26484;SDS011;18083;50.560;7.262;2023-05-15T05:59:32;61.10;;;36.40;;
26484;SDS011;18083;50.560;7.262;2023-05-15T06:02:00;67.72;;;36.50;;
26484;SDS011;18083;50.560;7.262;2023-05-15T06:04:29;63.48;;;36.53;;
26484;SDS011;18083;50.560;7.262;2023-05-15T06:06:56;66.12;;;37.00;;
26484;SDS011;18083;50.560;7.262;2023-05-15T06:09:24;62.15;;;37.03;;
26484;SDS011;18083;50.560;7.262;2023-05-15T06:11:51;61.05;;;36.25;;
26484;SDS011;18083;50.560;7.262;2023-05-15T06:14:18;62.53;;;34.53;;
26484;SDS011;18083;50.560;7.262;2023-05-15T06:16:46;66.05;;;37.53;;
26484;SDS011;18083;50.560;7.262;2023-05-15T06:19:13;59.90;;;36.40;;
26484;SDS011;18083;50.560;7.262;2023-05-15T06:21:40;59.40;;;35.30;;
26484;SDS011;18083;50.560;7.262;2023-05-15T06:24:08;61.45;;;35.40;;
26484;SDS011;18083;50.560;7.262;2023-05-15T06:26:35;56.33;;;31.23;;
26484;SDS011;18083;50.560;7.262;2023-05-15T06:29:03;55.10;;;33.00;;
26484;SDS011;18083;50.560;7.262;2023-05-15T06:31:30;60.85;;;33.88;;
26484;SDS011;18083;50.560;7.262;2023-05-15T06:33:57;62.08;;;33.95;;
26484;SDS011;18083;50.560;7.262;2023-05-15T06:36:25;57.20;;;33.75;;
26484;SDS011;18083;50.560;7.262;2023-05-15T06:38:52;57.30;;;32.30;;
26484;SDS011;18083;50.560;7.262;2023-05-15T06:41:19;67.25;;;35.17;;
26484;SDS011;18083;50.560;7.262;2023-05-15T06:43:47;61.30;;;35.80;;
26484;SDS011;18083;50.560;7.262;2023-05-15T06:46:14;60.58;;;35.10;;
26484;SDS011;18083;50.560;7.262;2023-05-15T06:48:43;61.42;;;36.03;;
26484;SDS011;18083;50.560;7.262;2023-05-15T06:51:11;63.33;;;34.08;;
26484;SDS011;18083;50.560;7.262;2023-05-15T06:53:39;62.53;;;33.60;;
26484;SDS011;18083;50.560;7.262;2023-05-15T06:56:07;63.92;;;35.52;;
26484;SDS011;18083;50.560;7.262;2023-05-15T06:58:34;58.35;;;33.55;;
26484;SDS011;18083;50.560;7.262;2023-05-15T07:01:02;54.93;;;34.67;;
26484;SDS011;18083;50.560;7.262;2023-05-15T07:03:29;64.82;;;36.17;;
26484;SDS011;18083;50.560;7.262;2023-05-15T07:05:56;60.67;;;36.13;;
26484;SDS011;18083;50.560;7.262;2023-05-15T07:08:24;66.75;;;39.38;;
26484;SDS011;18083;50.560;7.262;2023-05-15T07:10:52;59.80;;;34.35;;
26484;SDS011;18083;50.560;7.262;2023-05-15T07:13:19;64.15;;;38.05;;
26484;SDS011;18083;50.560;7.262;2023-05-15T07:15:47;58.55;;;35.73;;
26484;SDS011;18083;50.560;7.262;2023-05-15T07:18:14;57.40;;;33.92;;
26484;SDS011;18083;50.560;7.262;2023-05-15T07:20:41;58.60;;;34.88;;
26484;SDS011;18083;50.560;7.262;2023-05-15T07:23:08;61.95;;;34.98;;
26484;SDS011;18083;50.560;7.262;2023-05-15T07:25:36;57.60;;;34.25;;
26484;SDS011;18083;50.560;7.262;2023-05-15T07:28:03;59.60;;;35.80;;
26484;SDS011;18083;50.560;7.262;2023-05-15T07:30:31;64.35;;;36.73;;
26484;SDS011;18083;50.560;7.262;2023-05-15T07:32:58;60.17;;;34.80;;
26484;SDS011;18083;50.560;7.262;2023-05-15T07:35:25;59.13;;;35.38;;
26484;SDS011;18083;50.560;7.262;2023-05-15T07:37:52;62.88;;;36.68;;
26484;SDS011;18083;50.560;7.262;2023-05-15T07:40:20;65.35;;;34.98;;
26484;SDS011;18083;50.560;7.262;2023-05-15T07:42:47;69.12;;;39.10;;
26484;SDS011;18083;50.560;7.262;2023-05-15T07:45:14;64.17;;;35.58;;
26484;SDS011;18083;50.560;7.262;2023-05-15T07:47:43;59.90;;;35.70;;
26484;SDS011;18083;50.560;7.262;2023-05-15T07:50:11;63.90;;;35.15;;
26484;SDS011;18083;50.560;7.262;2023-05-15T07:52:39;68.20;;;39.42;;
26484;SDS011;18083;50.560;7.262;2023-05-15T07:55:08;64.62;;;36.28;;
26484;SDS011;18083;50.560;7.262;2023-05-15T07:57:35;64.40;;;37.10;;
26484;SDS011;18083;50.560;7.262;2023-05-15T08:00:03;59.35;;;33.98;;
26484;SDS011;18083;50.560;7.262;2023-05-15T08:02:32;64.47;;;36.23;;
26484;SDS011;18083;50.560;7.262;2023-05-15T08:04:59;64.22;;;34.50;;
26484;SDS011;18083;50.560;7.262;2023-05-15T08:07:27;53.52;;;32.63;;
26484;SDS011;18083;50.560;7.262;2023-05-15T08:09:54;47.98;;;31.00;;
26484;SDS011;18083;50.560;7.262;2023-05-15T08:12:21;55.48;;;31.85;;
26484;SDS011;18083;50.560;7.262;2023-05-15T08:14:49;54.48;;;32.33;;
26484;SDS011;18083;50.560;7.262;2023-05-15T08:17:17;49.23;;;31.20;;
26484;SDS011;18083;50.560;7.262;2023-05-15T08:19:44;44.65;;;29.40;;
26484;SDS011;18083;50.560;7.262;2023-05-15T08:22:12;45.30;;;29.30;;
26484;SDS011;18083;50.560;7.262;2023-05-15T08:24:39;46.23;;;30.08;;
26484;SDS011;18083;50.560;7.262;2023-05-15T08:27:07;50.67;;;29.85;;
26484;SDS011;18083;50.560;7.262;2023-05-15T08:29:35;49.55;;;30.43;;
26484;SDS011;18083;50.560;7.262;2023-05-15T08:32:02;50.60;;;32.05;;
26484;SDS011;18083;50.560;7.262;2023-05-15T08:34:31;59.95;;;33.18;;
26484;SDS011;18083;50.560;7.262;2023-05-15T08:36:58;61.30;;;35.85;;
26484;SDS011;18083;50.560;7.262;2023-05-15T08:39:25;59.42;;;32.53;;
26484;SDS011;18083;50.560;7.262;2023-05-15T08:42:04;56.48;;;34.08;;
26484;SDS011;18083;50.560;7.262;2023-05-15T08:44:30;57.27;;;36.77;;
26484;SDS011;18083;50.560;7.262;2023-05-15T08:46:58;53.02;;;33.38;;
26484;SDS011;18083;50.560;7.262;2023-05-15T08:49:34;57.93;;;34.45;;
26484;SDS011;18083;50.560;7.262;2023-05-15T08:52:00;54.50;;;31.95;;
26484;SDS011;18083;50.560;7.262;2023-05-15T08:54:27;52.48;;;30.85;;
26484;SDS011;18083;50.560;7.262;2023-05-15T08:56:55;52.83;;;31.10;;
26484;SDS011;18083;50.560;7.262;2023-05-15T08:59:22;47.10;;;31.02;;
26484;SDS011;18083;50.560;7.262;2023-05-15T09:01:50;45.33;;;28.62;;
26484;SDS011;18083;50.560;7.262;2023-05-15T09:04:17;52.65;;;31.68;;
26484;SDS011;18083;50.560;7.262;2023-05-15T09:06:45;49.10;;;30.95;;
26484;SDS011;18083;50.560;7.262;2023-05-15T09:09:13;48.17;;;31.12;;
26484;SDS011;18083;50.560;7.262;2023-05-15T09:11:44;47.88;;;31.82;;
26484;SDS011;18083;50.560;7.262;2023-05-15T09:14:12;45.33;;;29.18;;
26484;SDS011;18083;50.560;7.262;2023-05-15T09:16:39;52.03;;;31.42;;
26484;SDS011;18083;50.560;7.262;2023-05-15T09:19:06;44.95;;;30.05;;
26484;SDS011;18083;50.560;7.262;2023-05-15T09:21:34;46.85;;;30.72;;
26484;SDS011;18083;50.560;7.262;2023-05-15T09:24:17;49.67;;;30.40;;
26484;SDS011;18083;50.560;7.262;2023-05-15T09:26:45;47.95;;;30.27;;
26484;SDS011;18083;50.560;7.262;2023-05-15T09:29:15;42.33;;;28.07;;
26484;SDS011;18083;50.560;7.262;2023-05-15T09:31:44;47.45;;;30.97;;
26484;SDS011;18083;50.560;7.262;2023-05-15T09:34:12;49.45;;;30.30;;
26484;SDS011;18083;50.560;7.262;2023-05-15T09:36:43;52.88;;;30.50;;
26484;SDS011;18083;50.560;7.262;2023-05-15T09:39:10;48.75;;;29.63;;
26484;SDS011;18083;50.560;7.262;2023-05-15T09:41:40;47.98;;;30.02;;
26484;SDS011;18083;50.560;7.262;2023-05-15T09:44:08;44.55;;;29.45;;
26484;SDS011;18083;50.560;7.262;2023-05-15T09:46:36;43.40;;;29.75;;
26484;SDS011;18083;50.560;7.262;2023-05-15T09:49:03;43.55;;;29.77;;
26484;SDS011;18083;50.560;7.262;2023-05-15T09:51:30;43.15;;;27.48;;
26484;SDS011;18083;50.560;7.262;2023-05-15T09:54:00;43.70;;;27.98;;
26484;SDS011;18083;50.560;7.262;2023-05-15T09:56:27;47.85;;;29.02;;
26484;SDS011;18083;50.560;7.262;2023-05-15T09:58:55;43.63;;;28.20;;
26484;SDS011;18083;50.560;7.262;2023-05-15T10:01:23;42.88;;;26.27;;
26484;SDS011;18083;50.560;7.262;2023-05-15T10:04:00;43.45;;;27.62;;
26484;SDS011;18083;50.560;7.262;2023-05-15T10:06:35;34.58;;;25.12;;
26484;SDS011;18083;50.560;7.262;2023-05-15T10:09:03;41.98;;;27.77;;
26484;SDS011;18083;50.560;7.262;2023-05-15T10:11:34;43.95;;;28.70;;
26484;SDS011;18083;50.560;7.262;2023-05-15T10:14:05;39.85;;;28.07;;
26484;SDS011;18083;50.560;7.262;2023-05-15T10:16:33;37.15;;;25.10;;
26484;SDS011;18083;50.560;7.262;2023-05-15T10:19:04;39.73;;;25.75;;
26484;SDS011;18083;50.560;7.262;2023-05-15T10:21:32;33.90;;;24.55;;
26484;SDS011;18083;50.560;7.262;2023-05-15T10:24:01;38.13;;;26.60;;
26484;SDS011;18083;50.560;7.262;2023-05-15T10:28:57;32.15;;;23.45;;
26484;SDS011;18083;50.560;7.262;2023-05-15T10:31:25;37.58;;;24.50;;
26484;SDS011;18083;50.560;7.262;2023-05-15T10:33:54;34.38;;;25.08;;
26484;SDS011;18083;50.560;7.262;2023-05-15T10:36:21;32.67;;;23.92;;
26484;SDS011;18083;50.560;7.262;2023-05-15T10:38:49;40.45;;;25.57;;
26484;SDS011;18083;50.560;7.262;2023-05-15T10:41:16;34.23;;;25.25;;
26484;SDS011;18083;50.560;7.262;2023-05-15T10:43:47;28.45;;;22.02;;
26484;SDS011;18083;50.560;7.262;2023-05-15T10:46:15;36.05;;;23.85;;
26484;SDS011;18083;50.560;7.262;2023-05-15T10:48:42;34.20;;;24.82;;
26484;SDS011;18083;50.560;7.262;2023-05-15T10:51:16;33.63;;;24.60;;
26484;SDS011;18083;50.560;7.262;2023-05-15T10:53:45;32.00;;;22.67;;
26484;SDS011;18083;50.560;7.262;2023-05-15T10:56:15;33.55;;;23.65;;
26484;SDS011;18083;50.560;7.262;2023-05-15T10:58:43;36.23;;;25.43;;
26484;SDS011;18083;50.560;7.262;2023-05-15T11:01:25;28.77;;;22.52;;
26484;SDS011;18083;50.560;7.262;2023-05-15T11:03:50;29.18;;;22.27;;
26484;SDS011;18083;50.560;7.262;2023-05-15T11:06:17;32.73;;;22.98;;
26484;SDS011;18083;50.560;7.262;2023-05-15T11:08:46;30.52;;;22.48;;
26484;SDS011;18083;50.560;7.262;2023-05-15T11:27:18;30.15;;;21.07;;
26484;SDS011;18083;50.560;7.262;2023-05-15T11:30:04;27.73;;;21.00;;
26484;SDS011;18083;50.560;7.262;2023-05-15T11:35:21;35.38;;;22.93;;
26484;SDS011;18083;50.560;7.262;2023-05-15T11:37:53;27.13;;;22.07;;
26484;SDS011;18083;50.560;7.262;2023-05-15T11:40:26;29.32;;;23.42;;
26484;SDS011;18083;50.560;7.262;2023-05-15T11:42:59;28.73;;;20.60;;
26484;SDS011;18083;50.560;7.262;2023-05-15T11:45:28;25.92;;;19.82;;
26484;SDS011;18083;50.560;7.262;2023-05-15T11:47:56;27.95;;;22.02;;
26484;SDS011;18083;50.560;7.262;2023-05-15T11:50:23;31.25;;;21.93;;
26484;SDS011;18083;50.560;7.262;2023-05-15T11:52:51;27.77;;;19.98;;
26484;SDS011;18083;50.560;7.262;2023-05-15T11:55:19;29.92;;;22.17;;
26484;SDS011;18083;50.560;7.262;2023-05-15T11:57:46;27.73;;;20.43;;
26484;SDS011;18083;50.560;7.262;2023-05-15T12:00:14;28.00;;;19.77;;
26484;SDS011;18083;50.560;7.262;2023-05-15T12:02:41;25.25;;;21.27;;
26484;SDS011;18083;50.560;7.262;2023-05-15T12:05:09;28.05;;;21.62;;
26484;SDS011;18083;50.560;7.262;2023-05-15T12:07:41;30.27;;;21.42;;
26484;SDS011;18083;50.560;7.262;2023-05-15T12:10:05;29.10;;;24.95;;
26484;SDS011;18083;50.560;7.262;2023-05-15T12:12:34;36.25;;;24.50;;
26484;SDS011;18083;50.560;7.262;2023-05-15T12:15:02;24.85;;;19.98;;
26484;SDS011;18083;50.560;7.262;2023-05-15T12:17:31;26.42;;;20.82;;
26484;SDS011;18083;50.560;7.262;2023-05-15T12:20:00;28.17;;;23.25;;
26484;SDS011;18083;50.560;7.262;2023-05-15T12:22:34;30.75;;;21.90;;
26484;SDS011;18083;50.560;7.262;2023-05-15T12:24:58;29.32;;;23.12;;
26484;SDS011;18083;50.560;7.262;2023-05-15T12:27:26;29.37;;;20.80;;
26484;SDS011;18083;50.560;7.262;2023-05-15T12:29:53;33.75;;;20.25;;
26484;SDS011;18083;50.560;7.262;2023-05-15T12:32:20;24.85;;;19.60;;
26484;SDS011;18083;50.560;7.262;2023-05-15T12:34:48;23.95;;;17.62;;
26484;SDS011;18083;50.560;7.262;2023-05-15T12:37:17;27.22;;;17.20;;
26484;SDS011;18083;50.560;7.262;2023-05-15T12:39:55;21.23;;;16.25;;
26484;SDS011;18083;50.560;7.262;2023-05-15T12:42:23;24.25;;;16.57;;
26484;SDS011;18083;50.560;7.262;2023-05-15T12:44:50;23.98;;;18.60;;
26484;SDS011;18083;50.560;7.262;2023-05-15T12:47:24;23.25;;;18.07;;
26484;SDS011;18083;50.560;7.262;2023-05-15T12:49:55;23.60;;;17.23;;
26484;SDS011;18083;50.560;7.262;2023-05-15T12:52:26;19.87;;;15.32;;
26484;SDS011;18083;50.560;7.262;2023-05-15T12:54:52;24.55;;;17.57;;
26484;SDS011;18083;50.560;7.262;2023-05-15T12:57:19;17.35;;;15.15;;
26484;SDS011;18083;50.560;7.262;2023-05-15T12:59:46;13.38;;;11.85;;
26484;SDS011;18083;50.560;7.262;2023-05-15T13:02:14;16.25;;;13.08;;
26484;SDS011;18083;50.560;7.262;2023-05-15T13:04:44;16.77;;;14.47;;
26484;SDS011;18083;50.560;7.262;2023-05-15T13:07:16;17.40;;;13.18;;
26484;SDS011;18083;50.560;7.262;2023-05-15T13:09:42;18.15;;;14.58;;
26484;SDS011;18083;50.560;7.262;2023-05-15T13:12:11;18.48;;;15.03;;
26484;SDS011;18083;50.560;7.262;2023-05-15T13:14:38;16.35;;;14.25;;
26484;SDS011;18083;50.560;7.262;2023-05-15T13:17:05;20.08;;;13.70;;
26484;SDS011;18083;50.560;7.262;2023-05-15T13:19:33;15.30;;;13.70;;
26484;SDS011;18083;50.560;7.262;2023-05-15T13:22:00;13.93;;;12.47;;
26484;SDS011;18083;50.560;7.262;2023-05-15T13:24:27;16.12;;;13.05;;
26484;SDS011;18083;50.560;7.262;2023-05-15T13:26:54;16.00;;;12.33;;
26484;SDS011;18083;50.560;7.262;2023-05-15T13:29:22;13.45;;;10.90;;
26484;SDS011;18083;50.560;7.262;2023-05-15T13:31:49;11.53;;;9.75;;
26484;SDS011;18083;50.560;7.262;2023-05-15T13:34:16;14.13;;;11.68;;
26484;SDS011;18083;50.560;7.262;2023-05-15T13:36:44;21.07;;;11.95;;
26484;SDS011;18083;50.560;7.262;2023-05-15T13:39:11;10.53;;;9.48;;
26484;SDS011;18083;50.560;7.262;2023-05-15T13:41:38;12.95;;;10.43;;
26484;SDS011;18083;50.560;7.262;2023-05-15T13:44:06;11.18;;;9.98;;
26484;SDS011;18083;50.560;7.262;2023-05-15T13:46:33;12.95;;;11.30;;
26484;SDS011;18083;50.560;7.262;2023-05-15T13:49:00;15.38;;;11.33;;
26484;SDS011;18083;50.560;7.262;2023-05-15T13:51:37;11.33;;;9.15;;
26484;SDS011;18083;50.560;7.262;2023-05-15T13:54:06;9.48;;;8.60;;
26484;SDS011;18083;50.560;7.262;2023-05-15T13:56:33;10.48;;;9.48;;
26484;SDS011;18083;50.560;7.262;2023-05-15T13:59:00;11.95;;;10.65;;
26484;SDS011;18083;50.560;7.262;2023-05-15T14:01:27;8.40;;;7.50;;
26484;SDS011;18083;50.560;7.262;2023-05-15T14:03:55;13.40;;;9.95;;
26484;SDS011;18083;50.560;7.262;2023-05-15T14:06:22;13.75;;;11.03;;
26484;SDS011;18083;50.560;7.262;2023-05-15T14:08:49;13.00;;;10.03;;
26484;SDS011;18083;50.560;7.262;2023-05-15T14:11:16;10.95;;;8.65;;
26484;SDS011;18083;50.560;7.262;2023-05-15T14:13:46;11.33;;;9.20;;
26484;SDS011;18083;50.560;7.262;2023-05-15T14:16:13;9.58;;;8.48;;
26484;SDS011;18083;50.560;7.262;2023-05-15T14:18:40;11.73;;;9.43;;
26484;SDS011;18083;50.560;7.262;2023-05-15T14:21:07;10.68;;;9.13;;
26484;SDS011;18083;50.560;7.262;2023-05-15T14:23:35;8.73;;;7.83;;
26484;SDS011;18083;50.560;7.262;2023-05-15T14:26:02;11.18;;;8.55;;
26484;SDS011;18083;50.560;7.262;2023-05-15T14:28:30;11.22;;;8.63;;
26484;SDS011;18083;50.560;7.262;2023-05-15T14:30:57;15.90;;;11.22;;
26484;SDS011;18083;50.560;7.262;2023-05-15T14:33:25;13.08;;;9.98;;
26484;SDS011;18083;50.560;7.262;2023-05-15T14:35:52;14.05;;;10.75;;
26484;SDS011;18083;50.560;7.262;2023-05-15T14:38:19;16.97;;;10.60;;
26484;SDS011;18083;50.560;7.262;2023-05-15T14:40:47;15.68;;;12.00;;
26484;SDS011;18083;50.560;7.262;2023-05-15T14:43:14;11.73;;;9.58;;
26484;SDS011;18083;50.560;7.262;2023-05-15T14:45:41;15.75;;;10.80;;
26484;SDS011;18083;50.560;7.262;2023-05-15T14:48:09;18.73;;;10.45;;
26484;SDS011;18083;50.560;7.262;2023-05-15T14:50:36;14.98;;;10.28;;
26484;SDS011;18083;50.560;7.262;2023-05-15T14:53:04;12.73;;;9.78;;
26484;SDS011;18083;50.560;7.262;2023-05-15T14:55:36;10.58;;;8.93;;
26484;SDS011;18083;50.560;7.262;2023-05-15T14:58:04;14.63;;;9.08;;
26484;SDS011;18083;50.560;7.262;2023-05-15T15:00:32;13.30;;;9.13;;
26484;SDS011;18083;50.560;7.262;2023-05-15T15:02:59;13.98;;;10.93;;
26484;SDS011;18083;50.560;7.262;2023-05-15T15:05:27;13.53;;;10.50;;
26484;SDS011;18083;50.560;7.262;2023-05-15T15:07:58;12.60;;;10.63;;